createdAt,value
2022-10-01T00:02:12.209Z,98697.91
2022-10-01T00:04:39.476Z,98702.61
2022-10-01T00:07:10.260Z,98698.42
2022-10-01T00:09:37.760Z,98698.48
2022-10-01T00:12:04.698Z,98695.95
2022-10-01T00:14:31.566Z,98696.12
2022-10-01T00:16:58.521Z,98697.53
2022-10-01T00:19:25.417Z,98692.93
2022-10-01T00:21:52.140Z,98694.64
2022-10-01T00:24:18.915Z,98697.70
2022-10-01T00:26:47.164Z,98702.69
2022-10-01T00:29:15.084Z,98704.27
2022-10-01T00:31:42.202Z,98707.25
2022-10-01T00:34:12.506Z,98711.65
2022-10-01T00:36:39.502Z,98709.85
2022-10-01T00:39:06.363Z,98707.33
2022-10-01T00:41:35.143Z,98704.37
2022-10-01T00:44:31.806Z,98708.71
2022-10-01T00:47:20.574Z,98709.80
2022-10-01T00:49:50.253Z,98708.77
2022-10-01T00:52:24.285Z,98707.67
2022-10-01T00:55:28.418Z,98706.96
2022-10-01T00:57:56.266Z,98702.20
2022-10-01T01:00:23.326Z,98701.88
2022-10-01T01:02:50.759Z,98705.33
2022-10-01T01:05:18.224Z,98704.56
2022-10-01T01:07:48.212Z,98710.64
2022-10-01T01:10:19.963Z,98712.36
2022-10-01T01:13:31.941Z,98711.89
2022-10-01T01:15:58.741Z,98712.52
2022-10-01T01:18:34.943Z,98712.95
2022-10-01T01:21:12.642Z,98710.69
2022-10-01T01:23:58.133Z,98709.94
2022-10-01T01:26:53.652Z,98708.77
2022-10-01T01:29:36.649Z,98704.83
2022-10-01T01:32:17.418Z,98705.37
2022-10-01T01:34:48.735Z,98703.63
2022-10-01T01:37:20.245Z,98701.14
2022-10-01T01:39:52.426Z,98694.04
2022-10-01T01:42:26.286Z,98691.79
2022-10-01T01:44:57.740Z,98688.23
2022-10-01T01:47:32.521Z,98692.81
2022-10-01T01:50:02.389Z,98691.44
2022-10-01T01:52:30.156Z,98683.58
2022-10-01T01:54:57.861Z,98686.13
2022-10-01T01:57:24.724Z,98691.09
2022-10-01T01:59:53.723Z,98688.81
2022-10-01T02:02:28.264Z,98692.20
2022-10-01T02:04:59.986Z,98697.09
2022-10-01T02:07:55.496Z,98695.17
2022-10-01T02:10:36.371Z,98689.73
2022-10-01T02:13:29.510Z,98688.20
2022-10-01T02:16:34.825Z,98684.98
2022-10-01T02:19:39.748Z,98685.20
2022-10-01T02:22:17.003Z,98684.48
2022-10-01T02:24:58.137Z,98689.92
2022-10-01T02:27:39.501Z,98693.77
2022-10-01T02:30:09.328Z,98691.39
2022-10-01T02:32:40.093Z,98687.52
2022-10-01T02:35:10.838Z,98689.54
2022-10-01T02:37:40.568Z,98688.11
2022-10-01T02:40:12.477Z,98687.23
2022-10-01T02:42:47.778Z,98688.02
2022-10-01T02:45:19.090Z,98686.13
2022-10-01T02:48:07.256Z,98682.91
2022-10-01T02:50:43.331Z,98686.73
2022-10-01T02:53:19.145Z,98693.55
2022-10-01T02:55:48.688Z,98697.90
2022-10-01T02:58:18.634Z,98700.91
2022-10-01T03:00:45.454Z,98696.75
2022-10-01T03:03:12.281Z,98692.48
2022-10-01T03:05:42.660Z,98691.04
2022-10-01T03:08:09.424Z,98694.31
2022-10-01T03:10:36.351Z,98696.34
2022-10-01T03:13:05.535Z,98700.65
2022-10-01T03:15:32.822Z,98705.20
2022-10-01T03:17:59.599Z,98709.84
2022-10-01T03:20:26.434Z,98709.66
2022-10-01T03:22:53.200Z,98705.60
2022-10-01T03:25:20.140Z,98710.91
2022-10-01T03:27:51.630Z,98717.61
2022-10-01T03:30:18.933Z,98725.88
2022-10-01T03:32:45.692Z,98725.85
2022-10-01T03:35:12.960Z,98715.36
2022-10-01T03:37:39.917Z,98709.95
2022-10-01T03:40:07.074Z,98708.70
2022-10-01T03:42:33.970Z,98710.79
2022-10-01T03:45:00.767Z,98714.94
2022-10-01T03:47:27.664Z,98722.55
2022-10-01T03:49:54.535Z,98726.77
2022-10-01T03:52:22.829Z,98729.32
2022-10-01T03:54:49.646Z,98733.09
2022-10-01T03:57:16.473Z,98724.84
2022-10-01T03:59:43.249Z,98727.55
2022-10-01T04:02:10.407Z,98733.24
2022-10-01T04:04:37.453Z,98733.09
2022-10-01T04:07:04.281Z,98734.31
2022-10-01T04:09:31.167Z,98735.94
2022-10-01T04:11:59.460Z,98734.39
2022-10-01T04:14:26.468Z,98742.35
2022-10-01T04:16:53.362Z,98748.05
2022-10-01T04:19:20.143Z,98750.92
2022-10-01T04:21:49.479Z,98751.17
2022-10-01T04:24:16.323Z,98753.11
2022-10-01T04:26:43.747Z,98753.83
2022-10-01T04:29:11.935Z,98761.42
2022-10-01T04:31:39.786Z,98763.98
2022-10-01T04:34:06.850Z,98761.05
2022-10-01T04:36:33.720Z,98766.91
2022-10-01T04:39:02.509Z,98771.00
2022-10-01T04:41:31.656Z,98761.52
2022-10-01T04:44:02.500Z,98747.25
2022-10-01T04:46:29.824Z,98742.23
2022-10-01T04:48:56.744Z,98738.28
2022-10-01T04:51:24.102Z,98744.20
2022-10-01T04:53:50.809Z,98748.54
2022-10-01T04:56:17.584Z,98749.02
2022-10-01T04:58:45.836Z,98752.73
2022-10-01T05:01:12.537Z,98756.91
2022-10-01T05:03:39.482Z,98757.13
2022-10-01T05:06:06.426Z,98755.36
2022-10-01T05:08:41.867Z,98753.70
2022-10-01T05:11:08.789Z,98754.23
2022-10-01T05:13:35.774Z,98753.14
2022-10-01T05:16:03.878Z,98753.42
2022-10-01T05:18:31.364Z,98755.79
2022-10-01T05:20:58.524Z,98759.45
2022-10-01T05:23:25.399Z,98765.45
2022-10-01T05:25:52.310Z,98766.23
2022-10-01T05:28:22.731Z,98770.07
2022-10-01T05:30:50.547Z,98768.13
2022-10-01T05:33:17.634Z,98766.23
2022-10-01T05:35:44.617Z,98766.98
2022-10-01T05:38:11.493Z,98759.66
2022-10-01T05:40:38.487Z,98764.30
2022-10-01T05:43:09.001Z,98764.41
2022-10-01T05:45:43.323Z,98767.15
2022-10-01T05:48:11.537Z,98768.77
2022-10-01T05:50:40.098Z,98774.14
2022-10-01T05:53:09.533Z,98774.05
2022-10-01T05:55:37.009Z,98766.95
2022-10-01T05:58:10.636Z,98764.07
2022-10-01T06:00:39.377Z,98764.41
2022-10-01T06:03:07.274Z,98763.98
2022-10-01T06:05:35.499Z,98757.73
2022-10-01T06:08:06.286Z,98754.98
2022-10-01T06:10:33.309Z,98748.64
2022-10-01T06:13:01.478Z,98746.71
2022-10-01T06:15:29.653Z,98746.63
2022-10-01T06:17:56.625Z,98744.24
2022-10-01T06:20:23.480Z,98743.06
2022-10-01T06:22:55.049Z,98736.59
2022-10-01T06:25:23.150Z,98738.84
2022-10-01T06:27:55.798Z,98734.36
2022-10-01T06:30:25.734Z,98739.92
2022-10-01T06:33:00.118Z,98735.49
2022-10-01T06:35:26.944Z,98740.02
2022-10-01T06:37:53.884Z,98739.41
2022-10-01T06:40:20.971Z,98737.02
2022-10-01T06:42:48.803Z,98736.78
2022-10-01T06:45:17.807Z,98733.06
2022-10-01T06:47:45.146Z,98742.17
2022-10-01T06:50:32.606Z,98743.31
2022-10-01T06:53:00.853Z,98745.09
2022-10-01T06:55:30.560Z,98743.86
2022-10-01T06:58:01.836Z,98745.78
2022-10-01T07:00:34.209Z,98744.52
2022-10-01T07:03:04.133Z,98738.92
2022-10-01T07:05:36.043Z,98729.30
2022-10-01T07:08:03.189Z,98719.74
2022-10-01T07:10:31.654Z,98716.26
2022-10-01T07:13:08.271Z,98710.36
2022-10-01T07:15:35.289Z,98712.66
2022-10-01T07:18:02.195Z,98708.71
2022-10-01T07:20:30.952Z,98705.45
2022-10-01T07:22:59.539Z,98697.43
2022-10-01T07:25:27.836Z,98698.84
2022-10-01T07:28:04.026Z,98702.23
2022-10-01T07:30:31.629Z,98703.27
2022-10-01T07:32:58.677Z,98697.30
2022-10-01T07:35:26.534Z,98695.84
2022-10-01T07:37:54.776Z,98695.07
2022-10-01T07:40:22.606Z,98696.14
2022-10-01T07:42:54.144Z,98694.40
2022-10-01T07:45:22.627Z,98694.73
2022-10-01T07:47:58.026Z,98694.86
2022-10-01T07:50:26.151Z,98692.83
2022-10-01T07:52:54.779Z,98687.41
2022-10-01T07:55:25.877Z,98677.48
2022-10-01T07:57:57.714Z,98663.48
2022-10-01T08:00:27.215Z,98664.52
2022-10-01T08:02:55.696Z,98669.81
2022-10-01T08:05:28.508Z,98668.55
2022-10-01T08:08:00.791Z,98668.84
2022-10-01T08:10:28.599Z,98669.08
2022-10-01T08:13:07.708Z,98663.63
2022-10-01T08:15:35.318Z,98662.01
2022-10-01T08:18:03.558Z,98662.42
2022-10-01T08:20:31.832Z,98663.15
2022-10-01T08:23:06.645Z,98663.10
2022-10-01T08:25:36.324Z,98664.41
2022-10-01T08:28:06.641Z,98661.88
2022-10-01T08:30:39.283Z,98659.63
2022-10-01T08:33:07.149Z,98654.77
2022-10-01T08:35:34.046Z,98651.48
2022-10-01T08:38:03.216Z,98647.05
2022-10-01T08:40:38.250Z,98641.64
2022-10-01T08:43:13.707Z,98635.68
2022-10-01T08:45:47.994Z,98626.62
2022-10-01T08:48:40.753Z,98623.61
2022-10-01T08:51:20.638Z,98628.16
2022-10-01T08:54:13.769Z,98620.32
2022-10-01T08:56:47.078Z,98621.30
2022-10-01T08:59:35.082Z,98619.67
2022-10-01T09:02:02.276Z,98617.96
2022-10-01T09:04:29.243Z,98609.59
2022-10-01T09:07:20.928Z,98606.73
2022-10-01T09:10:13.013Z,98609.20
2022-10-01T09:12:42.133Z,98603.60
2022-10-01T09:15:15.215Z,98601.23
2022-10-01T09:18:18.075Z,98606.16
2022-10-01T09:20:53.501Z,98609.36
2022-10-01T09:23:23.112Z,98605.73
2022-10-01T09:25:50.758Z,98607.65
2022-10-01T09:28:40.961Z,98608.31
2022-10-01T09:31:46.855Z,98617.48
2022-10-01T09:34:19.087Z,98616.12
2022-10-01T09:37:14.161Z,98614.70
2022-10-01T09:39:45.352Z,98603.18
2022-10-01T09:42:12.744Z,98597.48
2022-10-01T09:44:39.504Z,98595.16
2022-10-01T09:47:16.194Z,98593.24
2022-10-01T09:49:44.150Z,98592.48
2022-10-01T09:52:26.253Z,98587.88
2022-10-01T09:55:07.183Z,98585.98
2022-10-01T09:57:52.093Z,98582.24
2022-10-01T10:00:24.889Z,98577.29
2022-10-01T10:02:54.955Z,98577.35
2022-10-01T10:05:25.636Z,98573.79
2022-10-01T10:08:15.858Z,98576.71
2022-10-01T10:11:20.273Z,98583.41
2022-10-01T10:13:53.936Z,98587.14
2022-10-01T10:16:30.015Z,98587.27
2022-10-01T10:19:01.798Z,98589.41
2022-10-01T10:21:34.395Z,98589.00
2022-10-01T10:24:21.120Z,98591.60
2022-10-01T10:26:57.952Z,98591.77
2022-10-01T10:29:32.454Z,98585.23
2022-10-01T10:32:04.497Z,98582.01
2022-10-01T10:34:37.931Z,98580.23
2022-10-01T10:37:13.854Z,98575.41
2022-10-01T10:39:43.916Z,98563.80
2022-10-01T10:42:15.297Z,98558.92
2022-10-01T10:44:46.500Z,98562.23
2022-10-01T10:47:16.257Z,98551.64
2022-10-01T10:49:54.227Z,98547.08
2022-10-01T10:52:25.754Z,98538.71
2022-10-01T10:54:55.666Z,98532.54
2022-10-01T10:57:37.274Z,98528.96
2022-10-01T11:00:18.826Z,98523.77
2022-10-01T11:03:06.249Z,98521.66
2022-10-01T11:05:40.970Z,98520.18
2022-10-01T11:08:17.643Z,98515.48
2022-10-01T11:11:06.267Z,98503.31
2022-10-01T11:13:42.533Z,98497.34
2022-10-01T11:16:25.155Z,98488.65
2022-10-01T11:19:32.296Z,98487.95
2022-10-01T11:22:11.644Z,98481.89
2022-10-01T11:25:03.364Z,98476.50
2022-10-01T11:27:48.103Z,98474.19
2022-10-01T11:30:24.129Z,98468.18
2022-10-01T11:32:53.903Z,98464.73
2022-10-01T11:35:42.232Z,98458.42
2022-10-01T11:38:38.608Z,98459.04
2022-10-01T11:41:13.462Z,98456.05
2022-10-01T11:43:50.152Z,98452.86
2022-10-01T11:46:43.510Z,98446.50
2022-10-01T11:49:26.275Z,98443.71
2022-10-01T11:52:00.373Z,98434.91
2022-10-01T11:54:31.047Z,98433.79
2022-10-01T11:57:17.973Z,98431.30
2022-10-01T11:59:49.417Z,98425.16
2022-10-01T12:02:32.794Z,98416.31
2022-10-01T12:07:31.733Z,98413.07
2022-10-01T12:10:29.452Z,98404.22
2022-10-01T12:13:16.718Z,98389.27
2022-10-01T12:16:02.035Z,98381.44
2022-10-01T12:18:52.228Z,98378.58
2022-10-01T12:21:26.250Z,98366.53
2022-10-01T12:24:05.851Z,98356.09
2022-10-01T12:27:00.042Z,98343.27
2022-10-01T12:29:43.667Z,98337.55
2022-10-01T12:32:37.616Z,98339.98
2022-10-01T12:35:35.833Z,98330.49
2022-10-01T12:38:29.564Z,98333.36
2022-10-01T12:41:33.373Z,98331.99
2022-10-01T12:44:07.373Z,98323.02
2022-10-01T12:47:11.634Z,98308.34
2022-10-01T12:49:58.449Z,98320.81
2022-10-01T12:52:48.335Z,98331.88
2022-10-01T12:55:29.534Z,98339.48
2022-10-01T12:58:19.843Z,98334.66
2022-10-01T13:01:26.516Z,98326.73
2022-10-01T13:04:21.308Z,98330.90
2022-10-01T13:07:05.375Z,98336.90
2022-10-01T13:09:36.147Z,98335.81
2022-10-01T13:12:40.467Z,98330.20
2022-10-01T13:15:23.669Z,98321.30
2022-10-01T13:18:38.869Z,98318.34
2022-10-01T13:21:08.268Z,98303.65
2022-10-01T13:23:50.032Z,98304.98
2022-10-01T13:26:58.021Z,98309.21
2022-10-01T13:29:42.340Z,98297.90
2022-10-01T13:32:29.388Z,98299.91
2022-10-01T13:35:00.034Z,98298.33
2022-10-01T13:37:32.859Z,98298.11
2022-10-01T13:40:02.008Z,98297.33
2022-10-01T13:42:42.249Z,98294.11
2022-10-01T13:45:22.167Z,98287.41
2022-10-01T13:47:50.655Z,98283.73
2022-10-01T13:50:27.903Z,98283.04
2022-10-01T13:53:08.766Z,98277.08
2022-10-01T13:55:43.267Z,98272.95
2022-10-01T13:58:23.761Z,98273.45
2022-10-01T14:00:55.506Z,98278.27
2022-10-01T14:03:34.619Z,98271.25
2022-10-01T14:06:07.021Z,98262.55
2022-10-01T14:08:44.165Z,98260.95
2022-10-01T14:11:33.709Z,98262.61
2022-10-01T14:14:49.161Z,98262.81
2022-10-01T14:17:23.077Z,98250.48
2022-10-01T14:19:51.619Z,98243.71
2022-10-01T14:22:28.820Z,98227.39
2022-10-01T14:25:05.742Z,98212.73
2022-10-01T14:28:19.288Z,98202.30
2022-10-01T14:31:08.674Z,98190.75
2022-10-01T14:33:39.548Z,98202.69
2022-10-01T14:36:21.224Z,98208.70
2022-10-01T14:38:49.419Z,98202.35
2022-10-01T14:41:24.485Z,98203.46
2022-10-01T14:44:14.517Z,98195.79
2022-10-01T14:46:42.756Z,98209.10
2022-10-01T14:49:30.165Z,98212.32
2022-10-01T14:52:04.806Z,98208.63
2022-10-01T14:54:59.074Z,98196.63
2022-10-01T14:57:29.801Z,98179.45
2022-10-01T15:00:01.054Z,98170.05
2022-10-01T15:02:29.827Z,98153.02
2022-10-01T15:04:58.495Z,98146.09
2022-10-01T15:07:36.353Z,98159.19
2022-10-01T15:10:09.222Z,98163.93
2022-10-01T15:12:41.798Z,98153.51
2022-10-01T15:15:31.663Z,98148.35
2022-10-01T15:18:03.605Z,98132.64
2022-10-01T15:20:31.888Z,98119.69
2022-10-01T15:23:01.668Z,98111.76
2022-10-01T15:25:32.814Z,98116.45
2022-10-01T15:28:01.278Z,98115.15
2022-10-01T15:30:29.627Z,98125.23
2022-10-01T15:32:58.111Z,98134.95
2022-10-01T15:35:28.235Z,98125.79
2022-10-01T15:38:00.700Z,98131.49
2022-10-01T15:40:35.475Z,98138.92
2022-10-01T15:43:22.779Z,98137.73
2022-10-01T15:46:06.625Z,98127.93
2022-10-01T15:48:38.911Z,98123.69
2022-10-01T15:51:19.640Z,98115.88
2022-10-01T15:53:49.056Z,98106.21
2022-10-01T15:56:24.273Z,98114.95
2022-10-01T15:58:57.256Z,98120.97
2022-10-01T16:01:49.657Z,98114.77
2022-10-01T16:04:21.303Z,98098.75
2022-10-01T16:06:52.852Z,98086.90
2022-10-01T16:09:24.972Z,98088.38
2022-10-01T16:12:12.034Z,98089.70
2022-10-01T16:14:56.337Z,98088.25
2022-10-01T16:17:33.300Z,98083.77
2022-10-01T16:20:36.503Z,98073.17
2022-10-01T16:23:42.684Z,98072.19
2022-10-01T16:26:44.498Z,98068.08
2022-10-01T16:29:12.774Z,98060.55
2022-10-01T16:31:43.477Z,98058.80
2022-10-01T16:34:17.076Z,98056.23
2022-10-01T16:36:45.290Z,98054.44
2022-10-01T16:39:15.290Z,98051.78
2022-10-01T16:41:56.525Z,98054.23
2022-10-01T16:44:39.775Z,98043.38
2022-10-01T16:47:11.683Z,98037.61
2022-10-01T16:49:39.979Z,98035.60
2022-10-01T16:52:08.389Z,98038.73
2022-10-01T16:54:36.645Z,98043.88
2022-10-01T16:57:08.477Z,98041.83
2022-10-01T16:59:36.608Z,98034.45
2022-10-01T17:02:04.855Z,98027.45
2022-10-01T17:04:35.376Z,98021.80
2022-10-01T17:07:03.390Z,98010.32
2022-10-01T17:09:31.525Z,98001.78
2022-10-01T17:12:00.981Z,97995.95
2022-10-01T17:14:30.806Z,97997.58
2022-10-01T17:17:00.164Z,98003.16
2022-10-01T17:19:29.852Z,98002.92
2022-10-01T17:21:59.259Z,97999.40
2022-10-01T17:24:27.632Z,97998.64
2022-10-01T17:26:55.900Z,97999.55
2022-10-01T17:29:24.097Z,98008.91
2022-10-01T17:31:53.624Z,98011.59
2022-10-01T17:34:22.224Z,98007.25
2022-10-01T17:36:50.407Z,98006.52
2022-10-01T17:39:18.526Z,98008.35
2022-10-01T17:41:48.421Z,98002.97
2022-10-01T17:44:16.773Z,97998.30
2022-10-01T17:46:44.878Z,97993.97
2022-10-01T17:49:14.860Z,97992.73
2022-10-01T17:51:43.156Z,97995.88
2022-10-01T17:54:11.306Z,97995.86
2022-10-01T17:56:39.351Z,97987.98
2022-10-01T17:59:08.994Z,97969.95
2022-10-01T18:01:37.196Z,97964.99
2022-10-01T18:04:05.820Z,97959.05
2022-10-01T18:06:34.003Z,97948.85
2022-10-01T18:09:02.409Z,97948.64
2022-10-01T18:11:30.746Z,97948.38
2022-10-01T18:13:59.385Z,97946.38
2022-10-01T18:16:28.752Z,97952.20
2022-10-01T18:21:51.236Z,97950.42
2022-10-01T18:24:19.720Z,97949.44
2022-10-01T18:26:47.871Z,97944.75
2022-10-01T18:29:29.090Z,97948.46
2022-10-01T18:32:22.168Z,97947.08
2022-10-01T18:35:00.694Z,97944.68
2022-10-01T18:37:36.290Z,97934.55
2022-10-01T18:40:40.890Z,97927.86
2022-10-01T18:43:20.851Z,97920.70
2022-10-01T18:46:14.753Z,97921.42
2022-10-01T18:49:13.907Z,97928.85
2022-10-01T18:51:52.589Z,97936.94
2022-10-01T18:54:34.632Z,97934.39
2022-10-01T18:57:21.307Z,97925.14
2022-10-01T19:00:09.602Z,97923.11
2022-10-01T19:03:14.298Z,97920.93
2022-10-01T19:06:31.223Z,97907.98
2022-10-01T19:09:22.973Z,97909.86
2022-10-01T19:12:02.661Z,97918.34
2022-10-01T19:14:46.933Z,97925.17
2022-10-01T19:17:50.508Z,97921.83
2022-10-01T19:20:46.099Z,97907.10
2022-10-01T19:23:35.869Z,97909.50
2022-10-01T19:26:24.778Z,97913.46
2022-10-01T19:29:40.968Z,97917.95
2022-10-01T19:32:25.915Z,97918.27
2022-10-01T19:35:15.835Z,97921.21
2022-10-01T19:37:55.388Z,97923.59
2022-10-01T19:40:53.695Z,97922.45
2022-10-01T19:43:33.684Z,97920.50
2022-10-01T19:46:17.908Z,97923.33
2022-10-01T19:49:18.513Z,97930.20
2022-10-01T19:51:56.767Z,97913.08
2022-10-01T19:54:30.825Z,97902.19
2022-10-01T19:57:30.726Z,97901.11
2022-10-01T20:00:10.276Z,97906.73
2022-10-01T20:02:50.547Z,97916.27
2022-10-01T20:05:28.489Z,97918.67
2022-10-01T20:08:30.188Z,97912.88
2022-10-01T20:11:15.325Z,97902.55
2022-10-01T20:13:53.024Z,97893.39
2022-10-01T20:16:36.502Z,97888.20
2022-10-01T20:19:14.032Z,97883.60
2022-10-01T20:21:58.593Z,97878.86
2022-10-01T20:24:42.058Z,97875.34
2022-10-01T20:27:21.246Z,97871.94
2022-10-01T20:30:12.331Z,97873.58
2022-10-01T20:32:49.339Z,97867.82
2022-10-01T20:35:32.478Z,97857.49
2022-10-01T20:38:23.107Z,97856.84
2022-10-01T20:40:57.786Z,97861.25
2022-10-01T20:43:44.847Z,97863.52
2022-10-01T20:46:40.206Z,97864.45
2022-10-01T20:49:23.345Z,97863.90
2022-10-01T20:52:10.927Z,97862.88
2022-10-01T20:54:52.182Z,97861.95
2022-10-01T20:57:39.845Z,97860.81
2022-10-01T21:00:19.370Z,97860.16
2022-10-01T21:02:54.938Z,97862.05
2022-10-01T21:05:41.274Z,97860.70
2022-10-01T21:08:38.277Z,97858.14
2022-10-01T21:11:45.530Z,97865.31
2022-10-01T21:14:25.287Z,97867.02
2022-10-01T21:17:23.587Z,97863.23
2022-10-01T21:20:27.708Z,97863.37
2022-10-01T21:23:22.193Z,97861.58
2022-10-01T21:26:26.920Z,97855.41
2022-10-01T21:30:15.264Z,97853.73
2022-10-01T21:33:03.448Z,97850.76
2022-10-01T21:36:15.617Z,97850.59
2022-10-01T21:38:49.421Z,97847.55
2022-10-01T21:41:48.380Z,97846.39
2022-10-01T21:44:59.401Z,97850.22
2022-10-01T21:48:00.039Z,97857.08
2022-10-01T21:51:33.896Z,97854.84
2022-10-01T21:54:40.820Z,97844.83
2022-10-01T21:57:48.357Z,97839.77
2022-10-01T22:00:23.187Z,97838.06
2022-10-01T22:02:53.974Z,97834.15
2022-10-01T22:05:41.171Z,97827.35
2022-10-01T22:08:24.517Z,97818.52
2022-10-01T22:11:00.198Z,97810.44
2022-10-01T22:13:33.185Z,97806.48
2022-10-01T22:16:13.994Z,97803.56
2022-10-01T22:18:49.140Z,97800.45
2022-10-01T22:21:29.311Z,97807.64
2022-10-01T22:24:06.996Z,97817.16
2022-10-01T22:26:40.468Z,97815.91
2022-10-01T22:29:16.609Z,97815.36
2022-10-01T22:31:47.635Z,97816.32
2022-10-01T22:34:22.808Z,97808.17
2022-10-01T22:36:54.800Z,97801.73
2022-10-01T22:39:31.027Z,97796.77
2022-10-01T22:42:15.523Z,97792.13
2022-10-01T22:44:44.072Z,97783.62
2022-10-01T22:47:46.071Z,97780.99
2022-10-01T22:50:39.333Z,97789.69
2022-10-01T22:53:25.657Z,97792.92
2022-10-01T22:55:56.031Z,97789.66
2022-10-01T22:58:57.915Z,97790.55
2022-10-01T23:01:56.570Z,97789.52
2022-10-01T23:04:59.596Z,97791.71
2022-10-01T23:07:46.697Z,97787.36
2022-10-01T23:10:49.200Z,97783.23
2022-10-01T23:13:28.983Z,97774.52
2022-10-01T23:16:31.041Z,97764.78
2022-10-01T23:19:11.319Z,97760.91
2022-10-01T23:22:06.897Z,97760.98
2022-10-01T23:24:50.181Z,97765.50
2022-10-01T23:27:43.707Z,97758.64
2022-10-01T23:30:15.888Z,97757.03
2022-10-01T23:33:02.527Z,97751.27
2022-10-01T23:36:13.883Z,97743.03
2022-10-01T23:38:57.468Z,97738.34
2022-10-01T23:41:40.302Z,97726.91
2022-10-01T23:44:16.414Z,97709.54
2022-10-01T23:46:48.083Z,97695.79
2022-10-01T23:49:19.278Z,97682.59
2022-10-01T23:51:59.109Z,97678.11
2022-10-01T23:54:43.914Z,97678.45
2022-10-01T23:57:24.490Z,97683.20
2022-10-01T23:59:58.641Z,97695.70
